PBD214 LROP-LTFM
Flight info
| Callsign | PBD214 |
|---|---|
| Flight time | 0h 58m |
| Altitude | 35000 |
| Route | IDARU NONQE MAXOV METEL L620 RIXEN |
| Aircraft | B738/M-L/S |
Departure
| Time | 2026-05-05 17:25 |
|---|---|
| Airport | Bucharest Henri Coandă International Airport (LROP) |
Arrival
| Time | 2026-05-05 18:23 |
|---|---|
| Airport | İstanbul Airport (LTFM) |
| Time | Latitude | Longitude | Altitude | Speed | Heading |
|---|---|---|---|---|---|
| 2026-05-05 16:50 | 44.57024 | 26.08132 | 321 ft | 0 kts | 353° |
| 2026-05-05 17:13 | 44.56979 | 26.08136 | 319 ft | 15 kts | 13° |
| 2026-05-05 17:13 | 44.56935 | 26.08074 | 318 ft | 0 kts | 86° |
| 2026-05-05 17:15 | 44.56935 | 26.08085 | 320 ft | 4 kts | 86° |
| 2026-05-05 17:15 | 44.56938 | 26.08160 | 321 ft | 10 kts | 86° |
| 2026-05-05 17:16 | 44.56945 | 26.08233 | 321 ft | 8 kts | 83° |
| 2026-05-05 17:16 | 44.56950 | 26.08350 | 320 ft | 12 kts | 92° |
| 2026-05-05 17:16 | 44.56904 | 26.08438 | 320 ft | 11 kts | 120° |
| 2026-05-05 17:16 | 44.56916 | 26.08535 | 319 ft | 11 kts | 32° |
| 2026-05-05 17:17 | 44.56991 | 26.08539 | 319 ft | 11 kts | 354° |
| 2026-05-05 17:17 | 44.57077 | 26.08526 | 320 ft | 14 kts | 353° |
| 2026-05-05 17:17 | 44.57184 | 26.08511 | 321 ft | 17 kts | 354° |
| 2026-05-05 17:17 | 44.57309 | 26.08491 | 321 ft | 19 kts | 354° |
| 2026-05-05 17:18 | 44.57449 | 26.08477 | 322 ft | 21 kts | 12° |
| 2026-05-05 17:18 | 44.57502 | 26.08621 | 321 ft | 18 kts | 86° |
| 2026-05-05 17:18 | 44.57522 | 26.08874 | 321 ft | 35 kts | 84° |
| 2026-05-05 17:18 | 44.57548 | 26.09216 | 320 ft | 34 kts | 85° |
| 2026-05-05 17:19 | 44.57572 | 26.09536 | 319 ft | 32 kts | 83° |
| 2026-05-05 17:19 | 44.57597 | 26.09872 | 317 ft | 38 kts | 84° |
| 2026-05-05 17:19 | 44.57627 | 26.10271 | 316 ft | 44 kts | 84° |
| 2026-05-05 17:19 | 44.57657 | 26.10684 | 317 ft | 42 kts | 84° |
| 2026-05-05 17:20 | 44.57687 | 26.11099 | 316 ft | 45 kts | 84° |
| 2026-05-05 17:20 | 44.57724 | 26.11564 | 315 ft | 50 kts | 84° |
| 2026-05-05 17:20 | 44.57760 | 26.12033 | 314 ft | 47 kts | 83° |
| 2026-05-05 17:20 | 44.57793 | 26.12472 | 313 ft | 43 kts | 84° |
| 2026-05-05 17:21 | 44.57811 | 26.12670 | 312 ft | 9 kts | 82° |
| 2026-05-05 17:21 | 44.57812 | 26.12684 | 312 ft | 0 kts | 82° |
| 2026-05-05 17:21 | 44.57814 | 26.12721 | 311 ft | 16 kts | 85° |
| 2026-05-05 17:22 | 44.57893 | 26.12843 | 312 ft | 0 kts | 323° |
| 2026-05-05 17:22 | 44.57894 | 26.12843 | 312 ft | 1 kts | 323° |
| 2026-05-05 17:23 | 44.57960 | 26.12775 | 311 ft | 21 kts | 320° |
| 2026-05-05 17:23 | 44.57983 | 26.12683 | 311 ft | 0 kts | 265° |
| 2026-05-05 17:24 | 44.57982 | 26.12661 | 312 ft | 19 kts | 264° |
| 2026-05-05 17:24 | 44.57939 | 26.12114 | 315 ft | 94 kts | 264° |
| 2026-05-05 17:24 | 44.57848 | 26.10885 | 316 ft | 157 kts | 263° |
| 2026-05-05 17:25 | 44.57713 | 26.09175 | 721 ft | 180 kts | 263° |
| 2026-05-05 17:25 | 44.57633 | 26.08022 | 1458 ft | 174 kts | 263° |
| 2026-05-05 17:25 | 44.57462 | 26.05705 | 2378 ft | 195 kts | 264° |
| 2026-05-05 17:25 | 44.57299 | 26.03696 | 2633 ft | 216 kts | 263° |
| 2026-05-05 17:26 | 44.57118 | 26.01554 | 3075 ft | 227 kts | 264° |
| 2026-05-05 17:26 | 44.57040 | 25.99321 | 3529 ft | 237 kts | 279° |
| 2026-05-05 17:26 | 44.57676 | 25.97162 | 4017 ft | 243 kts | 309° |
| 2026-05-05 17:26 | 44.59001 | 25.95719 | 4628 ft | 246 kts | 338° |
| 2026-05-05 17:27 | 44.60686 | 25.95225 | 5221 ft | 249 kts | 0° |
| 2026-05-05 17:27 | 44.62356 | 25.95597 | 6143 ft | 236 kts | 19° |
| 2026-05-05 17:27 | 44.63761 | 25.96610 | 7136 ft | 221 kts | 34° |
| 2026-05-05 17:27 | 44.64767 | 25.98276 | 7594 ft | 237 kts | 66° |
| 2026-05-05 17:28 | 44.64897 | 26.00652 | 7988 ft | 255 kts | 94° |
| 2026-05-05 17:28 | 44.64581 | 26.03130 | 8524 ft | 260 kts | 96° |
| 2026-05-05 17:28 | 44.64241 | 26.05600 | 9098 ft | 262 kts | 96° |
| 2026-05-05 17:28 | 44.63882 | 26.08118 | 9691 ft | 264 kts | 96° |
| 2026-05-05 17:29 | 44.63511 | 26.10640 | 10296 ft | 263 kts | 96° |
| 2026-05-05 17:29 | 44.63134 | 26.13174 | 10844 ft | 268 kts | 96° |
| 2026-05-05 17:29 | 44.62753 | 26.15730 | 11590 ft | 266 kts | 96° |
| 2026-05-05 17:29 | 44.62372 | 26.18289 | 12347 ft | 265 kts | 96° |
| 2026-05-05 17:30 | 44.61985 | 26.20791 | 13014 ft | 268 kts | 102° |
| 2026-05-05 17:30 | 44.61023 | 26.23101 | 13661 ft | 281 kts | 124° |
| 2026-05-05 17:30 | 44.59748 | 26.25197 | 14286 ft | 283 kts | 124° |
| 2026-05-05 17:30 | 44.58485 | 26.27330 | 14840 ft | 286 kts | 123° |
| 2026-05-05 17:31 | 44.57248 | 26.29529 | 15413 ft | 288 kts | 122° |
| 2026-05-05 17:31 | 44.56040 | 26.31776 | 16000 ft | 290 kts | 121° |
| 2026-05-05 17:31 | 44.54847 | 26.34078 | 16576 ft | 292 kts | 121° |
| 2026-05-05 17:31 | 44.53665 | 26.36418 | 17151 ft | 295 kts | 120° |
| 2026-05-05 17:32 | 44.52492 | 26.38783 | 17718 ft | 297 kts | 120° |
| 2026-05-05 17:32 | 44.51316 | 26.41181 | 18285 ft | 300 kts | 120° |
| 2026-05-05 17:32 | 44.50135 | 26.43612 | 18766 ft | 303 kts | 120° |
| 2026-05-05 17:32 | 44.48963 | 26.46033 | 19236 ft | 306 kts | 120° |
| 2026-05-05 17:33 | 44.47768 | 26.48512 | 19708 ft | 309 kts | 120° |
| 2026-05-05 17:33 | 44.46561 | 26.51020 | 20173 ft | 312 kts | 120° |
| 2026-05-05 17:33 | 44.45344 | 26.53550 | 20655 ft | 315 kts | 120° |
| 2026-05-05 17:33 | 44.44114 | 26.56107 | 21120 ft | 318 kts | 120° |
| 2026-05-05 17:34 | 44.42807 | 26.58638 | 21575 ft | 324 kts | 130° |
| 2026-05-05 17:34 | 44.41063 | 26.60681 | 22028 ft | 330 kts | 141° |
| 2026-05-05 17:34 | 44.39165 | 26.62527 | 22497 ft | 333 kts | 143° |
| 2026-05-05 17:34 | 44.37237 | 26.64350 | 22949 ft | 336 kts | 143° |
| 2026-05-05 17:35 | 44.35311 | 26.66167 | 23394 ft | 339 kts | 143° |
| 2026-05-05 17:35 | 44.33323 | 26.68052 | 23812 ft | 342 kts | 143° |
| 2026-05-05 17:35 | 44.31383 | 26.69902 | 24201 ft | 343 kts | 143° |
| 2026-05-05 17:35 | 44.29407 | 26.71796 | 24592 ft | 345 kts | 143° |
| 2026-05-05 17:36 | 44.27422 | 26.73704 | 24968 ft | 347 kts | 143° |
| 2026-05-05 17:36 | 44.25432 | 26.75621 | 25352 ft | 349 kts | 143° |
| 2026-05-05 17:36 | 44.23427 | 26.77554 | 25728 ft | 351 kts | 143° |
| 2026-05-05 17:36 | 44.21412 | 26.79497 | 26099 ft | 353 kts | 143° |
| 2026-05-05 17:37 | 44.19391 | 26.81445 | 26507 ft | 353 kts | 143° |
| 2026-05-05 17:37 | 44.17381 | 26.83382 | 26991 ft | 351 kts | 143° |
| 2026-05-05 17:37 | 44.15373 | 26.85315 | 27441 ft | 349 kts | 143° |
| 2026-05-05 17:37 | 44.13365 | 26.87247 | 27852 ft | 349 kts | 143° |
| 2026-05-05 17:38 | 44.11380 | 26.89155 | 28259 ft | 348 kts | 143° |
| 2026-05-05 17:38 | 44.09387 | 26.91071 | 28675 ft | 347 kts | 143° |
| 2026-05-05 17:38 | 44.07401 | 26.92977 | 29077 ft | 346 kts | 144° |
| 2026-05-05 17:38 | 44.05423 | 26.94875 | 29462 ft | 345 kts | 144° |
| 2026-05-05 17:39 | 44.03447 | 26.96769 | 29835 ft | 344 kts | 144° |
| 2026-05-05 17:39 | 44.01467 | 26.98666 | 30071 ft | 348 kts | 144° |
| 2026-05-05 17:39 | 43.99448 | 27.00599 | 30135 ft | 356 kts | 144° |
| 2026-05-05 17:40 | 43.95312 | 27.04554 | 30290 ft | 370 kts | 144° |
| 2026-05-05 17:40 | 43.90979 | 27.08688 | 30441 ft | 385 kts | 144° |
| 2026-05-05 17:41 | 43.86471 | 27.12982 | 30577 ft | 400 kts | 144° |
| 2026-05-05 17:41 | 43.81784 | 27.17437 | 30713 ft | 415 kts | 144° |
| 2026-05-05 17:42 | 43.76967 | 27.22005 | 30837 ft | 428 kts | 144° |
| 2026-05-05 17:42 | 43.71966 | 27.26740 | 30960 ft | 441 kts | 144° |
| 2026-05-05 17:43 | 43.66814 | 27.31607 | 31090 ft | 453 kts | 144° |
| 2026-05-05 17:43 | 43.64204 | 27.34068 | 31238 ft | 456 kts | 144° |
| 2026-05-05 17:43 | 43.61608 | 27.36513 | 31499 ft | 456 kts | 144° |
| 2026-05-05 17:43 | 43.58996 | 27.38971 | 31868 ft | 453 kts | 144° |
| 2026-05-05 17:44 | 43.56397 | 27.41413 | 32236 ft | 451 kts | 144° |
| 2026-05-05 17:44 | 43.53801 | 27.43851 | 32508 ft | 451 kts | 144° |
| 2026-05-05 17:44 | 43.51208 | 27.46283 | 32747 ft | 451 kts | 144° |
| 2026-05-05 17:44 | 43.48614 | 27.48715 | 33008 ft | 451 kts | 144° |
| 2026-05-05 17:45 | 43.46009 | 27.51154 | 33032 ft | 454 kts | 144° |
| 2026-05-05 17:45 | 43.40773 | 27.56048 | 33036 ft | 454 kts | 144° |
| 2026-05-05 17:46 | 43.35601 | 27.60872 | 33027 ft | 442 kts | 144° |
| 2026-05-05 17:46 | 43.33085 | 27.63212 | 33034 ft | 431 kts | 144° |
| 2026-05-05 17:46 | 43.30628 | 27.65495 | 33058 ft | 434 kts | 144° |
| 2026-05-05 17:47 | 43.25567 | 27.70194 | 33060 ft | 444 kts | 144° |
| 2026-05-05 17:47 | 43.20394 | 27.74989 | 33064 ft | 452 kts | 144° |
| 2026-05-05 17:48 | 43.15156 | 27.79835 | 33046 ft | 454 kts | 144° |
| 2026-05-05 17:48 | 43.09915 | 27.84672 | 33052 ft | 454 kts | 144° |
| 2026-05-05 17:49 | 43.04671 | 27.89504 | 33054 ft | 454 kts | 144° |
| 2026-05-05 17:49 | 42.99470 | 27.94285 | 33063 ft | 453 kts | 144° |
| 2026-05-05 17:50 | 42.94226 | 27.99096 | 33068 ft | 453 kts | 144° |
| 2026-05-05 17:50 | 42.91612 | 28.01491 | 32804 ft | 453 kts | 144° |
| 2026-05-05 17:50 | 42.88989 | 28.03891 | 32082 ft | 454 kts | 144° |
| 2026-05-05 17:50 | 42.86367 | 28.06289 | 31440 ft | 454 kts | 144° |
| 2026-05-05 17:51 | 42.83736 | 28.08691 | 30801 ft | 455 kts | 144° |
| 2026-05-05 17:51 | 42.81105 | 28.11091 | 30187 ft | 455 kts | 144° |
| 2026-05-05 17:51 | 42.78477 | 28.13486 | 29453 ft | 454 kts | 144° |
| 2026-05-05 17:51 | 42.75856 | 28.15871 | 28742 ft | 453 kts | 144° |
| 2026-05-05 17:52 | 42.73228 | 28.18261 | 28042 ft | 453 kts | 144° |
| 2026-05-05 17:52 | 42.70614 | 28.20636 | 27355 ft | 451 kts | 144° |
| 2026-05-05 17:52 | 42.68005 | 28.23003 | 26701 ft | 450 kts | 144° |
| 2026-05-05 17:52 | 42.65436 | 28.25332 | 26069 ft | 448 kts | 144° |
| 2026-05-05 17:53 | 42.62831 | 28.27692 | 25429 ft | 450 kts | 144° |
| 2026-05-05 17:53 | 42.60218 | 28.30057 | 24807 ft | 452 kts | 144° |
| 2026-05-05 17:53 | 42.57608 | 28.32416 | 24198 ft | 450 kts | 144° |
| 2026-05-05 17:53 | 42.55007 | 28.34764 | 23592 ft | 447 kts | 144° |
| 2026-05-05 17:54 | 42.52433 | 28.37084 | 23217 ft | 443 kts | 144° |
| 2026-05-05 17:54 | 42.49867 | 28.39396 | 22952 ft | 441 kts | 144° |
| 2026-05-05 17:54 | 42.47326 | 28.41684 | 22676 ft | 438 kts | 144° |
| 2026-05-05 17:54 | 42.44782 | 28.43971 | 22414 ft | 435 kts | 144° |
| 2026-05-05 17:55 | 42.42259 | 28.46237 | 22145 ft | 434 kts | 144° |
| 2026-05-05 17:55 | 42.39745 | 28.48491 | 21884 ft | 433 kts | 144° |
| 2026-05-05 17:55 | 42.37237 | 28.50738 | 21624 ft | 432 kts | 144° |
| 2026-05-05 17:55 | 42.34753 | 28.52962 | 21355 ft | 423 kts | 144° |
| 2026-05-05 17:56 | 42.32350 | 28.55111 | 21067 ft | 414 kts | 144° |
| 2026-05-05 17:56 | 42.29976 | 28.57233 | 20771 ft | 402 kts | 144° |
| 2026-05-05 17:56 | 42.27677 | 28.59285 | 20474 ft | 387 kts | 144° |
| 2026-05-05 17:56 | 42.25473 | 28.61252 | 20189 ft | 373 kts | 144° |
| 2026-05-05 17:57 | 42.23353 | 28.63142 | 20077 ft | 355 kts | 144° |
| 2026-05-05 17:57 | 42.21336 | 28.64940 | 20060 ft | 342 kts | 144° |
| 2026-05-05 17:57 | 42.19352 | 28.66711 | 20077 ft | 343 kts | 144° |
| 2026-05-05 17:57 | 42.17346 | 28.68501 | 20086 ft | 348 kts | 144° |
| 2026-05-05 17:58 | 42.15316 | 28.70311 | 20087 ft | 351 kts | 144° |
| 2026-05-05 17:58 | 42.13284 | 28.72118 | 20079 ft | 349 kts | 144° |
| 2026-05-05 17:58 | 42.11279 | 28.73897 | 20075 ft | 346 kts | 144° |
| 2026-05-05 17:58 | 42.09291 | 28.75632 | 20058 ft | 336 kts | 148° |
| 2026-05-05 17:59 | 42.07106 | 28.76696 | 19833 ft | 339 kts | 171° |
| 2026-05-05 17:59 | 42.04723 | 28.76890 | 19381 ft | 345 kts | 178° |
| 2026-05-05 17:59 | 42.02309 | 28.76947 | 18930 ft | 349 kts | 178° |
| 2026-05-05 17:59 | 41.99871 | 28.76996 | 18494 ft | 351 kts | 178° |
| 2026-05-05 18:00 | 41.97417 | 28.77059 | 18011 ft | 353 kts | 178° |
| 2026-05-05 18:00 | 41.94959 | 28.77139 | 17506 ft | 355 kts | 178° |
| 2026-05-05 18:00 | 41.92477 | 28.77232 | 17011 ft | 357 kts | 177° |
| 2026-05-05 18:00 | 41.89980 | 28.77330 | 16525 ft | 359 kts | 177° |
| 2026-05-05 18:01 | 41.87513 | 28.77428 | 16052 ft | 360 kts | 177° |
| 2026-05-05 18:01 | 41.84994 | 28.77527 | 15579 ft | 362 kts | 177° |
| 2026-05-05 18:01 | 41.82469 | 28.77624 | 15115 ft | 363 kts | 177° |
| 2026-05-05 18:01 | 41.79939 | 28.77634 | 14644 ft | 365 kts | 186° |
| 2026-05-05 18:02 | 41.77521 | 28.76678 | 14175 ft | 365 kts | 210° |
| 2026-05-05 18:02 | 41.75522 | 28.74630 | 13732 ft | 361 kts | 227° |
| 2026-05-05 18:02 | 41.73743 | 28.72261 | 13232 ft | 361 kts | 227° |
| 2026-05-05 18:02 | 41.71952 | 28.69893 | 12745 ft | 362 kts | 227° |
| 2026-05-05 18:03 | 41.70152 | 28.67533 | 12252 ft | 362 kts | 227° |
| 2026-05-05 18:03 | 41.68346 | 28.65184 | 11769 ft | 362 kts | 227° |
| 2026-05-05 18:03 | 41.66532 | 28.62837 | 11293 ft | 362 kts | 227° |
| 2026-05-05 18:03 | 41.64714 | 28.60495 | 10821 ft | 362 kts | 227° |
| 2026-05-05 18:04 | 41.62898 | 28.58161 | 10366 ft | 362 kts | 227° |
| 2026-05-05 18:04 | 41.61116 | 28.55875 | 10067 ft | 356 kts | 227° |
| 2026-05-05 18:04 | 41.59335 | 28.53597 | 10015 ft | 343 kts | 227° |
| 2026-05-05 18:04 | 41.57643 | 28.51436 | 9986 ft | 329 kts | 227° |
| 2026-05-05 18:05 | 41.56022 | 28.49366 | 9977 ft | 316 kts | 227° |
| 2026-05-05 18:05 | 41.54486 | 28.47406 | 9980 ft | 302 kts | 227° |
| 2026-05-05 18:05 | 41.52987 | 28.45490 | 9988 ft | 295 kts | 227° |
| 2026-05-05 18:05 | 41.51504 | 28.43594 | 10001 ft | 296 kts | 227° |
| 2026-05-05 18:06 | 41.50012 | 28.41685 | 10014 ft | 297 kts | 227° |
| 2026-05-05 18:06 | 41.49527 | 28.41066 | 10014 ft | 298 kts | 227° |
| 2026-05-05 18:06 | 41.47010 | 28.37854 | 10011 ft | 299 kts | 227° |
| 2026-05-05 18:06 | 41.45499 | 28.35947 | 10015 ft | 301 kts | 223° |
| 2026-05-05 18:07 | 41.43627 | 28.34663 | 9751 ft | 311 kts | 193° |
| 2026-05-05 18:07 | 41.41437 | 28.34610 | 9227 ft | 319 kts | 175° |
| 2026-05-05 18:07 | 41.39235 | 28.34868 | 8688 ft | 325 kts | 175° |
| 2026-05-05 18:07 | 41.36969 | 28.35126 | 8359 ft | 324 kts | 175° |
| 2026-05-05 18:08 | 41.34735 | 28.35365 | 8130 ft | 319 kts | 175° |
| 2026-05-05 18:08 | 41.33273 | 28.35512 | 7951 ft | 316 kts | 175° |
| 2026-05-05 18:08 | 41.31095 | 28.35722 | 7731 ft | 312 kts | 176° |
| 2026-05-05 18:08 | 41.28937 | 28.35921 | 7502 ft | 308 kts | 176° |
| 2026-05-05 18:09 | 41.26126 | 28.36174 | 7193 ft | 303 kts | 176° |
| 2026-05-05 18:09 | 41.24040 | 28.36359 | 6973 ft | 299 kts | 176° |
| 2026-05-05 18:09 | 41.22645 | 28.36482 | 6817 ft | 296 kts | 176° |
| 2026-05-05 18:09 | 41.20597 | 28.36662 | 6590 ft | 293 kts | 176° |
| 2026-05-05 18:10 | 41.18573 | 28.36839 | 6380 ft | 290 kts | 176° |
| 2026-05-05 18:10 | 41.16572 | 28.37013 | 6137 ft | 287 kts | 176° |
| 2026-05-05 18:10 | 41.14611 | 28.37184 | 5901 ft | 284 kts | 176° |
| 2026-05-05 18:10 | 41.12644 | 28.37356 | 5670 ft | 281 kts | 176° |
| 2026-05-05 18:11 | 41.10700 | 28.37525 | 5418 ft | 278 kts | 176° |
| 2026-05-05 18:11 | 41.08788 | 28.37691 | 5199 ft | 275 kts | 176° |
| 2026-05-05 18:11 | 41.06868 | 28.37858 | 5045 ft | 277 kts | 176° |
| 2026-05-05 18:11 | 41.04948 | 28.38025 | 5007 ft | 277 kts | 176° |
| 2026-05-05 18:12 | 41.03015 | 28.38193 | 5007 ft | 279 kts | 176° |
| 2026-05-05 18:12 | 41.01082 | 28.38379 | 4992 ft | 277 kts | 171° |
| 2026-05-05 18:12 | 40.99333 | 28.39271 | 4989 ft | 264 kts | 140° |
| 2026-05-05 18:12 | 40.98169 | 28.41021 | 4991 ft | 246 kts | 112° |
| 2026-05-05 18:13 | 40.97621 | 28.43060 | 4992 ft | 233 kts | 92° |
| 2026-05-05 18:13 | 40.97516 | 28.45190 | 5006 ft | 233 kts | 84° |
| 2026-05-05 18:13 | 40.97525 | 28.47348 | 5008 ft | 235 kts | 83° |
| 2026-05-05 18:13 | 40.97545 | 28.49478 | 5011 ft | 225 kts | 83° |
| 2026-05-05 18:14 | 40.97560 | 28.51499 | 4988 ft | 214 kts | 83° |
| 2026-05-05 18:14 | 40.97573 | 28.53464 | 4988 ft | 214 kts | 83° |
| 2026-05-05 18:14 | 40.97584 | 28.55434 | 4992 ft | 214 kts | 84° |
| 2026-05-05 18:14 | 40.97592 | 28.57397 | 4986 ft | 213 kts | 84° |
| 2026-05-05 18:15 | 40.97598 | 28.59359 | 4991 ft | 213 kts | 84° |
| 2026-05-05 18:15 | 40.97603 | 28.61322 | 4995 ft | 213 kts | 84° |
| 2026-05-05 18:15 | 40.97606 | 28.63287 | 4992 ft | 214 kts | 84° |
| 2026-05-05 18:15 | 40.97607 | 28.65255 | 5002 ft | 213 kts | 84° |
| 2026-05-05 18:16 | 40.97608 | 28.67198 | 4993 ft | 214 kts | 85° |
| 2026-05-05 18:16 | 40.97608 | 28.69166 | 4994 ft | 214 kts | 85° |
| 2026-05-05 18:16 | 40.97615 | 28.71131 | 4996 ft | 211 kts | 81° |
| 2026-05-05 18:16 | 40.98114 | 28.72814 | 4988 ft | 192 kts | 39° |
| 2026-05-05 18:17 | 40.99271 | 28.73425 | 4996 ft | 178 kts | 356° |
| 2026-05-05 18:17 | 41.00489 | 28.73279 | 4996 ft | 175 kts | 358° |
| 2026-05-05 18:17 | 41.01690 | 28.73248 | 4993 ft | 172 kts | 359° |
| 2026-05-05 18:17 | 41.02901 | 28.73227 | 4813 ft | 176 kts | 359° |
| 2026-05-05 18:18 | 41.04125 | 28.73205 | 4598 ft | 173 kts | 359° |
| 2026-05-05 18:18 | 41.05308 | 28.73182 | 4369 ft | 169 kts | 359° |
| 2026-05-05 18:18 | 41.06473 | 28.73160 | 4146 ft | 166 kts | 358° |
| 2026-05-05 18:18 | 41.07617 | 28.73137 | 3947 ft | 164 kts | 359° |
| 2026-05-05 18:19 | 41.08758 | 28.73115 | 3745 ft | 164 kts | 359° |
| 2026-05-05 18:19 | 41.09881 | 28.73094 | 3517 ft | 160 kts | 359° |
| 2026-05-05 18:19 | 41.10959 | 28.73068 | 3327 ft | 151 kts | 359° |
| 2026-05-05 18:19 | 41.11996 | 28.73046 | 3071 ft | 148 kts | 359° |
| 2026-05-05 18:20 | 41.13042 | 28.73029 | 2906 ft | 152 kts | 359° |
| 2026-05-05 18:20 | 41.14095 | 28.73014 | 2723 ft | 151 kts | 359° |
| 2026-05-05 18:20 | 41.15144 | 28.72988 | 2510 ft | 150 kts | 359° |
| 2026-05-05 18:20 | 41.16184 | 28.72958 | 2319 ft | 150 kts | 359° |
| 2026-05-05 18:21 | 41.17231 | 28.72945 | 2094 ft | 151 kts | 360° |
| 2026-05-05 18:21 | 41.18289 | 28.72927 | 1919 ft | 152 kts | 359° |
| 2026-05-05 18:21 | 41.19353 | 28.72903 | 1718 ft | 152 kts | 360° |
| 2026-05-05 18:21 | 41.20414 | 28.72890 | 1537 ft | 153 kts | 359° |
| 2026-05-05 18:22 | 41.21493 | 28.72864 | 1338 ft | 156 kts | 359° |
| 2026-05-05 18:22 | 41.22571 | 28.72842 | 1129 ft | 153 kts | 359° |
| 2026-05-05 18:22 | 41.23622 | 28.72821 | 901 ft | 155 kts | 359° |
| 2026-05-05 18:22 | 41.24721 | 28.72798 | 753 ft | 159 kts | 0° |
| 2026-05-05 18:23 | 41.25813 | 28.72785 | 617 ft | 153 kts | 360° |
| 2026-05-05 18:23 | 41.26813 | 28.72772 | 487 ft | 129 kts | 360° |
| 2026-05-05 18:23 | 41.26872 | 28.72772 | 504 ft | 0 kts | 1° |